• Join FlightAware (Why Join?)
  • Login
  • US Flag 
06:29PM EDT


 

Airport Tracker/Info


-or-


 

Live Flight TrackerFlight Track Log ✈ ASQ5874 ✈ 22-Sep-2013 ✈ KICT - KORD

Flight Track Log - Related Links

Times and Time Zones

All times are in EDT time to prevent confusion due to time zone crossing. See the ASQ5874 flight status page for this flight to view local times or setup timezone preferences in your user account.

Time Position Orientation Groundspeed Altitude Reporting Facility
EDT Latitude Longitude Course Direction KTS MPH feet Rate Location/Type
07:05PM 37.6231 -97.4647 231° Southwest 184 212 2,800  Level Kansas City Center
07:06PM 37.6453 -97.5194 297° West 253 291 4,500 1,740 Climbing Kansas City Center
07:07PM 37.6722 -97.5186 North 259 298 5,300 1,560 Climbing Kansas City Center
07:08PM 37.7467 -97.4972 13° North 264 304 6,800 1,740 Climbing Kansas City Center
07:09PM 37.8936 -96.9670 65° Northeast  Level Estimated
07:09PM 37.8269 -97.4728 14° North 282 325 9,000  Level Kansas City Center
07:10PM 37.9819 -96.9693 359° North  Level FlightAware Approximate
07:10PM 37.9264 -97.4439 13° North 305 351 10,900  Level Kansas City Center
07:11PM 38.0150 -97.4158 14° North 329 379 11,700 720 Climbing Kansas City Center
07:12PM 38.1122 -97.3872 13° North 355 409 12,400 840 Climbing Kansas City Center
07:13PM 38.2117 -97.3447 19° North 375 432 13,500 960 Climbing Kansas City Center
07:14PM 38.2764 -97.2422 51° Northeast 376 433 14,400 780 Climbing Kansas City Center
07:15PM 38.3303 -97.1203 61° Northeast 391 450 15,200 840 Climbing Kansas City Center
07:16PM 38.3947 -96.9711 61° Northeast 400 460 16,200 840 Climbing Kansas City Center
07:17PM 38.4481 -96.8444 62° Northeast 405 466 17,000 720 Climbing Kansas City Center
07:18PM 38.5003 -96.7206 62° Northeast 409 471 17,700 780 Climbing Kansas City Center
07:19PM 38.5606 -96.5761 62° Northeast 413 475 18,700 900 Climbing Kansas City Center
07:20PM 38.6133 -96.4519 61° Northeast 415 478 19,600 1,080 Climbing Kansas City Center
07:21PM 38.6736 -96.3078 62° Northeast 412 474 21,000 1,200 Climbing Kansas City Center
07:22PM 38.7250 -96.1853 62° Northeast 409 471 22,100 1,140 Climbing Kansas City Center
07:23PM 38.7833 -96.0433 62° Northeast 405 466 23,400 1,200 Climbing Kansas City Center
07:24PM 38.8328 -95.9217 62° Northeast 402 463 24,600 1,200 Climbing Kansas City Center
07:25PM 38.8911 -95.7817 62° Northeast 400 460 25,900 1,140 Climbing Kansas City Center
07:26PM 38.9394 -95.6608 63° Northeast 400 460 27,000 1,140 Climbing Kansas City Center
07:27PM 38.9969 -95.5217 62° Northeast 394 453 28,300 1,200 Climbing Kansas City Center
07:28PM 39.0494 -95.3928 62° Northeast 399 459 29,600 1,140 Climbing Kansas City Center
07:29PM 39.1000 -95.2669 63° Northeast 397 457 30,700 660 Climbing Kansas City Center
07:30PM 39.1561 -95.1272 63° Northeast 412 474 31,000 120 Climbing Kansas City Center
07:31PM 39.2131 -94.9875 62° Northeast 436 502 31,000  Level Kansas City Center
07:32PM 39.3036 -94.8944 38° Northeast 441 507 31,000 120 Level Kansas City Center
07:33PM 39.4339 -94.8358 19° North 449 517 31,300 600 Climbing Kansas City Center
07:34PM 39.5439 -94.7858 19° North 441 507 32,300 1,020 Climbing Kansas City Center
07:36PM 39.6667 -94.7256 21° North 424 488 33,400 1,020 Climbing Kansas City Center
07:37PM 39.7683 -94.6731 22° Northeast 411 473 34,400 720 Climbing Kansas City Center
07:38PM 39.8856 -94.6094 23° Northeast 409 471 35,000 240 Climbing Kansas City Center
07:39PM 39.9903 -94.5525 23° Northeast 423 487 35,000  Level Kansas City Center
07:40PM 40.1175 -94.4856 22° Northeast 441 507 35,000  Level Kansas City Center
07:41PM 40.1925 -94.3525 54° Northeast 481 554 35,000  Level Kansas City Center
07:42PM 40.1989 -94.1508 88° East 496 571 35,000  Level Kansas City Center
07:43PM 40.1900 -93.9617 93° East 507 583 35,000  Level Kansas City Center
07:44PM 40.1844 -93.7822 92° East 502 578 35,000  Level Kansas City Center
07:45PM 40.1772 -93.6017 93° East 502 578 35,000 -720 Level Kansas City Center
07:46PM 40.1700 -93.4214 93° East 502 578 33,600 -1,020 Descending Kansas City Center
07:47PM 40.1625 -93.2464 93° East 492 566 33,000 -300 Descending Kansas City Center
07:48PM 40.1544 -93.0306 93° East 499 574 33,000  Level Kansas City Center
07:49PM 40.1456 -92.8442 94° East 501 577 33,000  Level Kansas City Center
07:50PM 40.1358 -92.6700 94° East 502 578 33,000  Level Kansas City Center
07:51PM 40.1728 -92.4744 76° East 499 574 33,000  Level Kansas City Center
07:52PM 40.2344 -92.3167 63° Northeast 491 565 33,000  Level Kansas City Center
07:53PM 40.2919 -92.1558 65° Northeast 495 570 33,000  Level Kansas City Center
07:54PM 40.3486 -91.9972 65° Northeast 490 564 33,000 -240 Level Kansas City Center
07:55PM 40.4042 -91.8389 65° Northeast 486 559 32,600 -1,020 Descending Kansas City Center
07:56PM 40.4675 -91.6578 65° Northeast 465 535 31,000 -780 Descending Kansas City Center
07:57PM 40.5194 -91.5050 66° East 463 533 31,000  Level Kansas City Center
07:58PM 40.5706 -91.3494 67° East 466 536 31,000  Level Kansas City Center
07:59PM 40.6325 -91.1725 65° Northeast 467 537 31,000  Level Kansas City Center
08:00PM 40.6858 -91.0156 66° East 469 540 31,000  Level Chicago Center
08:01PM 40.7389 -90.8583 66° East 468 539 31,000  Level Chicago Center
08:03PM 40.8044 -90.6697 65° Northeast 471 542 31,000  Level Chicago Center
08:04PM 40.8564 -90.5122 66° East 469 540 31,000  Level Chicago Center
08:05PM 40.9089 -90.3539 66° East 468 539 31,000 -420 Level Chicago Center
08:06PM 40.9600 -90.2008 66° East 464 534 30,200 -1,440 Descending Chicago Center
08:07PM 41.0128 -90.0436 66° East 454 522 28,100 -2,040 Descending Chicago Center
08:08PM 41.0639 -89.8869 67° East 457 526 26,100 -1,920 Descending Chicago Center
08:09PM 41.1150 -89.7281 67° East 464 534 24,200 -1,380 Descending Chicago Center
08:10PM 41.1631 -89.5844 66° East 423 487 23,300 -1,020 Descending Chicago Center
08:11PM 41.2194 -89.4414 62° Northeast 364 419 22,100 -1,140 Descending Chicago Center
08:12PM 41.2608 -89.3403 61° Northeast 318 366 21,000 -1,020 Descending Chicago Center
08:13PM 41.2992 -89.2444 62° Northeast 298 343 20,100 -1,020 Descending Chicago Center
08:14PM 41.3411 -89.1375 62° Northeast 298 343 19,000 -1,020 Descending Chicago Center
08:15PM 41.3789 -89.0417 62° Northeast 295 339 18,000 -960 Descending Chicago Center
08:16PM 41.4167 -88.9494 61° Northeast 288 331 17,100 -960 Descending Chicago Center
08:17PM 41.4528 -88.8575 62° Northeast 282 325 16,100 -960 Descending Chicago Center
08:18PM 41.4886 -88.7678 62° Northeast 277 319 15,200 -1,020 Descending Chicago Center
08:19PM 41.5211 -88.6569 69° East 287 330 14,100 -600 Descending Chicago Center
08:20PM 41.4589 -88.6272 160° South 267 307 14,000 -300 Descending Chicago Center
08:21PM 41.4244 -88.7042 239° Southwest 247 284 13,500 -900 Descending Chicago Center
08:22PM 41.3944 -88.7853 244° Southwest 247 284 12,200 -780 Descending Chicago Center
08:23PM 41.4292 -88.8436 308° West 277 319 11,900 -540 Descending Chicago Center
08:24PM 41.5044 -88.7719 35° Northeast 302 348 11,100 -480 Descending Chicago Center
08:25PM 41.5461 -88.6733 61° Northeast 305 351 11,000 -60 Descending Chicago Center
08:26PM 41.5825 -88.5758 63° Northeast 298 343 11,000 -120 Level Chicago Center
08:27PM 41.6019 -88.4817 75° East 273 314 10,800 -720 Descending Chicago Center
08:28PM 41.6111 -88.3886 82° East 258 297 9,600 -1,140 Descending Chicago Center
08:29PM 41.6211 -88.3017 81° East 244 281 8,500 -1,080 Descending Chicago Center
08:30PM 41.6672 -88.2358 47° Northeast 205 236 7,400 -1,020 Descending Chicago Center
08:31PM 41.7056 -88.1917 41° Northeast 189 217 6,500 -780 Descending Chicago Center
08:33PM 41.7397 -88.1508 42° Northeast 171 197 5,800 -660 Descending Chicago Center
08:34PM 41.7742 -88.1106 41° Northeast 166 191 5,200 -660 Descending Chicago Center
08:35PM 41.8094 -88.0700 41° Northeast 166 191 4,500 -840 Descending Chicago Center
08:36PM 41.8464 -88.0261 42° Northeast 171 197 3,500 -1,080 Descending Chicago Center
08:36PM 41.8833 -87.9833 41° Northeast 171 197 2,600 -1,020 Descending Chicago TRACON
08:37PM 41.9167 -87.9500 37° Northeast 152 175 1,800 -780 Descending Chicago TRACON
08:38PM 41.9333 -87.9167 56° Northeast 133 153 1,200 -720 Descending Chicago TRACON